createdAt,value
2022-08-28T00:00:40.331Z,97573.28
2022-08-28T00:03:10.454Z,97572.81
2022-08-28T00:05:42.177Z,97575.06
2022-08-28T00:08:13.945Z,97573.75
2022-08-28T00:10:42.737Z,97576.47
2022-08-28T00:13:18.566Z,97577.53
2022-08-28T00:15:50.471Z,97570.22
2022-08-28T00:18:19.034Z,97567.53
2022-08-28T00:20:48.285Z,97567.03
2022-08-28T00:23:16.419Z,97570.31
2022-08-28T00:25:44.221Z,97569.75
2022-08-28T00:28:23.395Z,97572.44
2022-08-28T00:30:55.996Z,97572.22
2022-08-28T00:33:27.497Z,97574.94
2022-08-28T00:35:56.594Z,97577.41
2022-08-28T00:38:27.262Z,97578.03
2022-08-28T00:41:03.665Z,97571.53
2022-08-28T00:43:47.753Z,97569.66
2022-08-28T00:46:23.333Z,97579.19
2022-08-28T00:48:51.233Z,97572.97
2022-08-28T00:51:39.356Z,97571.53
2022-08-28T00:54:08.375Z,97561.53
2022-08-28T00:56:39.365Z,97566.56
2022-08-28T00:59:15.604Z,97567.19
2022-08-28T01:01:46.034Z,97568.91
2022-08-28T01:04:20.160Z,97562.91
2022-08-28T01:06:53.984Z,97560.91
2022-08-28T01:09:25.851Z,97570.56
2022-08-28T01:11:59.367Z,97567.50
2022-08-28T01:14:28.710Z,97569.38
2022-08-28T01:16:57.970Z,97564.91
2022-08-28T01:19:43.855Z,97568.59
2022-08-28T01:22:38.816Z,97571.75
2022-08-28T01:25:14.626Z,97568.72
2022-08-28T01:27:43.079Z,97571.75
2022-08-28T01:30:19.882Z,97574.97
2022-08-28T01:32:52.268Z,97568.94
2022-08-28T01:35:30.076Z,97567.88
2022-08-28T01:37:58.460Z,97569.78
2022-08-28T01:40:36.305Z,97566.25
2022-08-28T01:43:20.439Z,97565.16
2022-08-28T01:45:53.226Z,97565.41
2022-08-28T01:48:24.579Z,97569.19
2022-08-28T01:50:52.823Z,97555.84
2022-08-28T01:53:24.991Z,97573.66
2022-08-28T01:55:55.167Z,97563.84
2022-08-28T01:58:25.076Z,97564.13
2022-08-28T02:00:55.831Z,97565.16
2022-08-28T02:03:24.746Z,97570.81
2022-08-28T02:05:52.851Z,97570.59
2022-08-28T02:08:21.279Z,97572.47
2022-08-28T02:10:49.379Z,97576.81
2022-08-28T02:13:17.208Z,97574.09
2022-08-28T02:15:46.052Z,97575.19
2022-08-28T02:18:14.645Z,97577.06
2022-08-28T02:20:43.000Z,97580.84
2022-08-28T02:23:11.315Z,97578.13
2022-08-28T02:25:39.521Z,97576.22
2022-08-28T02:28:07.738Z,97575.78
2022-08-28T02:30:36.855Z,97570.34
2022-08-28T02:33:04.801Z,97578.25
2022-08-28T02:35:32.710Z,97574.69
2022-08-28T02:38:01.617Z,97578.47
2022-08-28T02:40:30.138Z,97577.41
2022-08-28T02:42:58.263Z,97578.00
2022-08-28T02:45:26.250Z,97579.66
2022-08-28T02:47:56.822Z,97574.00
2022-08-28T02:50:24.962Z,97576.72
2022-08-28T02:52:53.708Z,97580.03
2022-08-28T02:55:22.733Z,97577.31
2022-08-28T02:57:51.685Z,97569.41
2022-08-28T03:00:24.358Z,97574.59
2022-08-28T03:02:52.834Z,97577.09
2022-08-28T03:05:24.835Z,97568.69
2022-08-28T03:07:53.579Z,97567.88
2022-08-28T03:10:22.406Z,97566.81
2022-08-28T03:12:50.434Z,97568.47
2022-08-28T03:15:18.928Z,97566.81
2022-08-28T03:17:47.975Z,97564.13
2022-08-28T03:20:16.696Z,97567.41
2022-08-28T03:23:03.307Z,97569.91
2022-08-28T03:25:31.135Z,97564.81
2022-08-28T03:27:59.125Z,97566.69
2022-08-28T03:30:27.381Z,97567.78
2022-08-28T03:32:55.241Z,97574.00
2022-08-28T03:35:24.145Z,97566.47
2022-08-28T03:37:51.974Z,97565.38
2022-08-28T03:40:20.538Z,97568.72
2022-08-28T03:42:53.380Z,97573.41
2022-08-28T03:45:22.039Z,97583.53
2022-08-28T03:47:50.873Z,97586.25
2022-08-28T03:50:19.817Z,97587.91
2022-08-28T03:52:47.761Z,97588.28
2022-08-28T03:55:15.869Z,97588.50
2022-08-28T03:57:43.650Z,97589.31
2022-08-28T04:00:13.658Z,97578.47
2022-08-28T04:02:42.872Z,97582.84
2022-08-28T04:05:11.936Z,97575.75
2022-08-28T04:07:40.161Z,97580.13
2022-08-28T04:10:08.788Z,97579.06
2022-08-28T04:12:37.151Z,97588.00
2022-08-28T04:15:07.088Z,97582.59
2022-08-28T04:17:38.621Z,97584.25
2022-08-28T04:20:08.952Z,97589.66
2022-08-28T04:22:37.381Z,97598.25
2022-08-28T04:25:06.752Z,97589.31
2022-08-28T04:27:35.087Z,97589.31
2022-08-28T04:30:04.140Z,97592.16
2022-08-28T04:32:37.397Z,97594.03
2022-08-28T04:35:08.839Z,97595.34
2022-08-28T04:37:38.604Z,97593.69
2022-08-28T04:40:11.612Z,97597.22
2022-08-28T04:42:40.162Z,97596.16
2022-08-28T04:45:08.689Z,97596.28
2022-08-28T04:47:38.010Z,97598.28
2022-08-28T04:50:07.804Z,97597.22
2022-08-28T04:52:35.863Z,97591.81
2022-08-28T04:55:05.353Z,97593.94
2022-08-28T04:57:36.209Z,97598.75
2022-08-28T05:00:07.380Z,97606.41
2022-08-28T05:02:35.238Z,97606.16
2022-08-28T05:05:04.351Z,97603.22
2022-08-28T05:07:33.064Z,97600.28
2022-08-28T05:10:00.842Z,97615.72
2022-08-28T05:12:28.633Z,97611.59
2022-08-28T05:14:56.429Z,97607.22
2022-08-28T05:17:24.197Z,97615.59
2022-08-28T05:19:54.383Z,97612.63
2022-08-28T05:22:22.155Z,97609.09
2022-08-28T05:24:49.992Z,97609.69
2022-08-28T05:27:17.761Z,97614.06
2022-08-28T05:29:45.571Z,97608.41
2022-08-28T05:32:13.341Z,97619.72
2022-08-28T05:34:41.133Z,97617.00
2022-08-28T05:37:09.709Z,97618.91
2022-08-28T05:39:37.499Z,97611.81
2022-08-28T05:42:05.688Z,97618.41
2022-08-28T05:44:33.459Z,97613.84
2022-08-28T05:47:01.213Z,97614.44
2022-08-28T05:49:29.029Z,97615.03
2022-08-28T05:51:56.845Z,97624.78
2022-08-28T05:54:24.664Z,97627.25
2022-08-28T05:56:52.499Z,97628.44
2022-08-28T05:59:20.397Z,97628.34
2022-08-28T06:01:49.762Z,97625.16
2022-08-28T06:04:27.164Z,97621.47
2022-08-28T06:06:55.294Z,97623.50
2022-08-28T06:09:29.675Z,97634.97
2022-08-28T06:12:02.346Z,97635.78
2022-08-28T06:14:31.585Z,97630.59
2022-08-28T06:17:01.022Z,97629.63
2022-08-28T06:19:31.846Z,97634.72
2022-08-28T06:22:07.246Z,97638.25
2022-08-28T06:24:36.543Z,97640.47
2022-08-28T06:27:04.848Z,97640.00
2022-08-28T06:29:32.708Z,97643.53
2022-08-28T06:32:04.435Z,97640.63
2022-08-28T06:34:32.446Z,97642.47
2022-08-28T06:37:00.675Z,97652.47
2022-08-28T06:39:28.509Z,97650.03
2022-08-28T06:41:56.286Z,97649.78
2022-08-28T06:44:24.548Z,97654.53
2022-08-28T06:46:54.126Z,97657.59
2022-08-28T06:49:22.481Z,97648.41
2022-08-28T06:51:50.460Z,97656.31
2022-08-28T06:54:22.977Z,97663.38
2022-08-28T06:56:52.297Z,97657.13
2022-08-28T06:59:20.262Z,97661.94
2022-08-28T07:01:48.279Z,97657.13
2022-08-28T07:04:16.314Z,97670.94
2022-08-28T07:06:47.029Z,97666.31
2022-08-28T07:09:15.529Z,97672.44
2022-08-28T07:11:48.735Z,97674.31
2022-08-28T07:14:17.103Z,97680.56
2022-08-28T07:16:45.019Z,97676.59
2022-08-28T07:19:13.678Z,97678.34
2022-08-28T07:21:44.855Z,97676.47
2022-08-28T07:24:15.555Z,97676.22
2022-08-28T07:26:46.123Z,97681.19
2022-08-28T07:29:15.784Z,97687.44
2022-08-28T07:31:49.171Z,97685.41
2022-08-28T07:34:20.391Z,97685.09
2022-08-28T07:36:48.923Z,97691.56
2022-08-28T07:39:16.895Z,97691.78
2022-08-28T07:41:46.936Z,97692.28
2022-08-28T07:44:34.507Z,97694.13
2022-08-28T07:47:05.898Z,97697.56
2022-08-28T07:49:35.340Z,97697.34
2022-08-28T07:52:05.433Z,97700.41
2022-08-28T07:54:36.003Z,97699.09
2022-08-28T07:57:05.413Z,97700.75
2022-08-28T07:59:36.831Z,97701.81
2022-08-28T08:02:06.951Z,97700.63
2022-08-28T08:04:35.407Z,97704.97
2022-08-28T08:07:05.020Z,97712.03
2022-08-28T08:09:38.769Z,97716.03
2022-08-28T08:12:10.313Z,97715.56
2022-08-28T08:14:40.390Z,97716.53
2022-08-28T08:17:09.464Z,97726.19
2022-08-28T08:19:37.547Z,97726.38
2022-08-28T08:22:05.646Z,97724.44
2022-08-28T08:24:33.917Z,97729.75
2022-08-28T08:27:03.065Z,97725.81
2022-08-28T08:29:36.027Z,97740.06
2022-08-28T08:32:09.088Z,97730.97
2022-08-28T08:34:41.975Z,97736.41
2022-08-28T08:37:12.754Z,97732.50
2022-08-28T08:39:43.078Z,97736.41
2022-08-28T08:42:30.751Z,97742.84
2022-08-28T08:45:04.085Z,97746.75
2022-08-28T08:47:47.273Z,97743.88
2022-08-28T08:50:24.203Z,97746.38
2022-08-28T08:53:35.529Z,97751.47
2022-08-28T08:56:06.215Z,97745.88
2022-08-28T08:58:45.244Z,97747.03
2022-08-28T09:01:39.508Z,97750.81
2022-08-28T09:04:59.563Z,97746.28
2022-08-28T09:07:59.357Z,97751.00
2022-08-28T09:10:44.769Z,97755.47
2022-08-28T09:13:28.607Z,97753.88
2022-08-28T09:15:56.844Z,97753.41
2022-08-28T09:18:32.088Z,97757.53
2022-08-28T09:21:00.562Z,97763.28
2022-08-28T09:23:30.044Z,97755.47
2022-08-28T09:26:01.880Z,97763.25
2022-08-28T09:28:35.785Z,97759.53
2022-08-28T09:31:12.514Z,97758.03
2022-08-28T09:33:44.963Z,97764.38
2022-08-28T09:36:33.373Z,97760.47
2022-08-28T09:39:18.374Z,97762.44
2022-08-28T09:42:17.712Z,97764.09
2022-08-28T09:45:09.230Z,97764.66
2022-08-28T09:47:51.804Z,97760.47
2022-08-28T09:50:44.567Z,97766.00
2022-08-28T09:53:12.201Z,97766.25
2022-08-28T09:56:11.147Z,97766.09
2022-08-28T09:58:47.231Z,97763.28
2022-08-28T10:01:39.146Z,97763.38
2022-08-28T10:04:24.661Z,97767.25
2022-08-28T10:07:03.424Z,97772.53
2022-08-28T10:10:00.294Z,97770.44
2022-08-28T10:12:30.621Z,97768.38
2022-08-28T10:15:33.899Z,97767.38
2022-08-28T10:18:07.322Z,97765.78
2022-08-28T10:21:04.077Z,97769.94
2022-08-28T10:23:51.268Z,97766.88
2022-08-28T10:26:46.748Z,97773.63
2022-08-28T10:29:53.562Z,97764.63
2022-08-28T10:32:54.730Z,97765.00
2022-08-28T10:35:35.486Z,97766.31
2022-08-28T10:38:17.377Z,97762.22
2022-08-28T10:41:06.215Z,97762.47
2022-08-28T10:43:48.428Z,97769.56
2022-08-28T10:46:45.165Z,97769.63
2022-08-28T10:49:40.731Z,97767.81
2022-08-28T10:52:36.018Z,97760.38
2022-08-28T10:55:07.774Z,97759.81
2022-08-28T10:57:52.115Z,97761.56
2022-08-28T11:00:24.105Z,97759.25
2022-08-28T11:03:33.978Z,97764.19
2022-08-28T11:06:20.405Z,97771.19
2022-08-28T11:08:55.369Z,97764.13
2022-08-28T11:11:46.824Z,97775.81
2022-08-28T11:14:47.063Z,97768.44
2022-08-28T11:17:22.755Z,97767.78
2022-08-28T11:20:02.941Z,97774.28
2022-08-28T11:23:01.329Z,97768.44
2022-08-28T11:25:42.491Z,97762.09
2022-08-28T11:28:25.614Z,97764.00
2022-08-28T11:31:05.511Z,97763.00
2022-08-28T11:33:49.813Z,97768.25
2022-08-28T11:36:20.435Z,97767.72
2022-08-28T11:38:57.821Z,97764.75
2022-08-28T11:41:32.800Z,97761.31
2022-08-28T11:44:09.388Z,97753.44
2022-08-28T11:46:43.928Z,97764.22
2022-08-28T11:49:29.856Z,97755.38
2022-08-28T11:52:34.069Z,97754.44
2022-08-28T11:55:31.043Z,97758.88
2022-08-28T12:00:46.252Z,97753.31
2022-08-28T12:03:44.688Z,97757.09
2022-08-28T12:06:13.855Z,97755.22
2022-08-28T12:09:12.979Z,97759.06
2022-08-28T12:11:43.122Z,97745.41
2022-08-28T12:14:41.256Z,97742.72
2022-08-28T12:17:31.202Z,97750.66
2022-08-28T12:20:24.127Z,97750.72
2022-08-28T12:23:00.325Z,97742.63
2022-08-28T12:25:37.783Z,97741.34
2022-08-28T12:28:33.577Z,97742.28
2022-08-28T12:32:13.097Z,97742.88
2022-08-28T12:34:58.543Z,97745.72
2022-08-28T12:37:54.305Z,97745.47
2022-08-28T12:40:38.134Z,97747.91
2022-08-28T12:43:10.808Z,97742.16
2022-08-28T12:45:59.550Z,97751.19
2022-08-28T12:48:35.085Z,97744.66
2022-08-28T12:51:08.275Z,97732.06
2022-08-28T12:53:46.926Z,97729.97
2022-08-28T12:56:24.084Z,97732.97
2022-08-28T12:58:53.083Z,97736.53
2022-08-28T13:01:33.119Z,97735.44
2022-08-28T13:04:25.977Z,97732.69
2022-08-28T13:07:03.269Z,97731.88
2022-08-28T13:09:31.318Z,97728.31
2022-08-28T13:11:59.116Z,97725.84
2022-08-28T13:14:46.205Z,97727.75
2022-08-28T13:17:36.129Z,97723.38
2022-08-28T13:20:08.485Z,97723.69
2022-08-28T13:22:42.114Z,97720.66
2022-08-28T13:25:33.335Z,97720.63
2022-08-28T13:28:17.769Z,97724.72
2022-08-28T13:30:58.477Z,97725.50
2022-08-28T13:33:27.302Z,97716.69
2022-08-28T13:35:55.204Z,97719.41
2022-08-28T13:38:25.099Z,97710.91
2022-08-28T13:41:02.254Z,97705.91
2022-08-28T13:43:46.207Z,97708.88
2022-08-28T13:46:14.530Z,97716.25
2022-08-28T13:48:42.337Z,97704.75
2022-08-28T13:51:15.290Z,97707.22
2022-08-28T13:53:50.569Z,97705.75
2022-08-28T13:56:21.854Z,97712.03
2022-08-28T13:58:57.864Z,97699.59
2022-08-28T14:01:46.621Z,97698.38
2022-08-28T14:04:14.628Z,97685.63
2022-08-28T14:06:45.743Z,97693.53
2022-08-28T14:09:17.567Z,97692.13
2022-08-28T14:11:47.907Z,97688.84
2022-08-28T14:14:16.875Z,97687.41
2022-08-28T14:16:45.785Z,97680.41
2022-08-28T14:19:13.856Z,97684.22
2022-08-28T14:21:42.088Z,97681.38
2022-08-28T14:24:10.185Z,97677.72
2022-08-28T14:26:38.565Z,97678.72
2022-08-28T14:29:10.064Z,97674.19
2022-08-28T14:31:41.007Z,97675.94
2022-08-28T14:34:14.897Z,97673.81
2022-08-28T14:36:43.009Z,97666.78
2022-08-28T14:39:13.569Z,97668.88
2022-08-28T14:41:46.930Z,97665.97
2022-08-28T14:44:15.993Z,97666.59
2022-08-28T14:46:46.072Z,97669.47
2022-08-28T14:49:16.456Z,97665.88
2022-08-28T14:51:46.341Z,97663.41
2022-08-28T14:54:17.993Z,97660.38
2022-08-28T14:56:47.532Z,97666.47
2022-08-28T14:59:23.957Z,97663.38
2022-08-28T15:01:55.574Z,97657.00
2022-08-28T15:04:25.066Z,97667.41
2022-08-28T15:06:59.161Z,97658.34
2022-08-28T15:09:27.642Z,97663.53
2022-08-28T15:11:55.523Z,97657.13
2022-08-28T15:14:23.279Z,97657.00
2022-08-28T15:16:51.329Z,97663.31
2022-08-28T15:19:19.445Z,97655.88
2022-08-28T15:21:51.297Z,97664.25
2022-08-28T15:24:26.384Z,97660.13
2022-08-28T15:26:54.371Z,97654.63
2022-08-28T15:29:22.307Z,97659.25
2022-08-28T15:31:51.362Z,97656.81
2022-08-28T15:34:23.483Z,97657.19
2022-08-28T15:36:55.666Z,97658.00
2022-08-28T15:39:54.911Z,97655.75
2022-08-28T15:42:23.298Z,97650.25
2022-08-28T15:44:51.074Z,97656.88
2022-08-28T15:47:18.823Z,97652.13
2022-08-28T15:49:53.158Z,97650.44
2022-08-28T15:52:20.967Z,97644.06
2022-08-28T15:54:49.654Z,97645.16
2022-08-28T15:57:18.100Z,97648.53
2022-08-28T15:59:48.847Z,97651.59
2022-08-28T16:02:24.153Z,97654.22
2022-08-28T16:04:53.591Z,97652.19
2022-08-28T16:07:23.053Z,97652.53
2022-08-28T16:09:51.347Z,97659.34
2022-08-28T16:12:19.218Z,97653.53
2022-08-28T16:14:47.144Z,97651.88
2022-08-28T16:17:14.904Z,97659.19
2022-08-28T16:19:43.698Z,97660.16
2022-08-28T16:22:15.994Z,97663.81
2022-08-28T16:24:45.377Z,97659.44
2022-08-28T16:27:15.632Z,97652.19
2022-08-28T16:29:45.468Z,97653.59
2022-08-28T16:32:13.721Z,97657.25
2022-08-28T16:34:44.907Z,97654.06
2022-08-28T16:37:14.391Z,97649.19
2022-08-28T16:39:52.549Z,97640.50
2022-08-28T16:42:20.311Z,97648.44
2022-08-28T16:44:48.659Z,97646.03
2022-08-28T16:47:16.657Z,97644.94
2022-08-28T16:49:44.465Z,97656.50
2022-08-28T16:52:12.285Z,97650.22
2022-08-28T16:54:48.643Z,97652.44
2022-08-28T16:57:20.760Z,97651.13
2022-08-28T16:59:53.491Z,97660.97
2022-08-28T17:02:26.481Z,97662.34
2022-08-28T17:04:55.420Z,97658.22
2022-08-28T17:07:23.143Z,97664.00
2022-08-28T17:09:50.967Z,97657.69
2022-08-28T17:12:18.796Z,97654.97
2022-08-28T17:14:46.763Z,97655.28
2022-08-28T17:17:14.844Z,97648.44
2022-08-28T17:19:42.639Z,97649.53
2022-08-28T17:22:29.205Z,97656.59
2022-08-28T17:24:58.855Z,97654.16
2022-08-28T17:27:26.808Z,97653.88
2022-08-28T17:29:54.714Z,97651.38
2022-08-28T17:32:22.431Z,97660.97
2022-08-28T17:34:50.241Z,97661.78
2022-08-28T17:37:20.583Z,97659.84
2022-08-28T17:39:48.728Z,97669.69
2022-08-28T17:42:16.481Z,97667.22
2022-08-28T17:44:44.252Z,97665.56
2022-08-28T17:47:12.103Z,97670.75
2022-08-28T17:49:40.669Z,97674.00
2022-08-28T17:52:08.399Z,97673.97
2022-08-28T17:54:36.519Z,97681.31
2022-08-28T17:57:04.434Z,97680.22
2022-08-28T17:59:32.846Z,97675.81
2022-08-28T18:02:01.701Z,97685.09
2022-08-28T18:04:29.654Z,97687.53
2022-08-28T18:06:57.620Z,97690.50
2022-08-28T18:09:25.488Z,97690.75
2022-08-28T18:11:53.552Z,97686.34
2022-08-28T18:14:21.472Z,97687.97
2022-08-28T18:16:49.311Z,97687.09
2022-08-28T18:19:17.201Z,97692.53
2022-08-28T18:21:45.400Z,97697.69
2022-08-28T18:24:13.360Z,97697.09
2022-08-28T18:26:42.826Z,97697.03
2022-08-28T18:29:11.673Z,97706.03
2022-08-28T18:31:40.371Z,97709.53
2022-08-28T18:34:09.829Z,97719.88
2022-08-28T18:36:39.938Z,97713.81
2022-08-28T18:39:08.592Z,97716.47
2022-08-28T18:41:43.789Z,97722.72
2022-08-28T18:44:15.245Z,97727.06
2022-08-28T18:46:44.726Z,97727.00
2022-08-28T18:49:13.407Z,97726.13
2022-08-28T18:51:43.635Z,97737.03
2022-08-28T18:54:14.419Z,97739.09
2022-08-28T18:56:46.758Z,97750.78
2022-08-28T18:59:17.162Z,97747.75
2022-08-28T19:01:45.552Z,97751.50
2022-08-28T19:04:13.447Z,97755.22
2022-08-28T19:06:42.115Z,97752.97
2022-08-28T19:09:20.423Z,97755.91
2022-08-28T19:11:48.734Z,97764.50
2022-08-28T19:14:16.592Z,97756.78
2022-08-28T19:16:45.048Z,97771.69
2022-08-28T19:19:12.948Z,97764.53
2022-08-28T19:21:41.127Z,97766.06
2022-08-28T19:24:08.959Z,97769.03
2022-08-28T19:26:38.607Z,97769.81
2022-08-28T19:29:07.066Z,97764.28
2022-08-28T19:31:37.749Z,97768.50
2022-08-28T19:34:07.844Z,97765.22
2022-08-28T19:36:36.218Z,97770.09
2022-08-28T19:39:06.581Z,97767.91
2022-08-28T19:41:36.754Z,97774.91
2022-08-28T19:44:05.872Z,97777.56
2022-08-28T19:46:36.791Z,97773.94
2022-08-28T19:49:07.638Z,97776.84
2022-08-28T19:51:38.081Z,97778.66
2022-08-28T19:54:11.000Z,97783.44
2022-08-28T19:56:39.898Z,97781.19
2022-08-28T19:59:08.945Z,97785.69
2022-08-28T20:01:41.156Z,97786.47
2022-08-28T20:04:13.422Z,97788.84
2022-08-28T20:06:41.205Z,97788.03
2022-08-28T20:09:12.719Z,97787.44
2022-08-28T20:11:44.248Z,97787.13
2022-08-28T20:14:12.573Z,97786.19
2022-08-28T20:16:43.270Z,97786.69
2022-08-28T20:19:12.611Z,97794.53
2022-08-28T20:21:44.249Z,97789.81
2022-08-28T20:24:17.680Z,97798.47
2022-08-28T20:26:46.139Z,97802.00
2022-08-28T20:29:15.137Z,97803.34
2022-08-28T20:31:47.292Z,97803.06
2022-08-28T20:34:19.951Z,97806.06
2022-08-28T20:36:48.677Z,97802.75
2022-08-28T20:39:16.594Z,97806.78
2022-08-28T20:41:46.039Z,97804.28
2022-08-28T20:44:17.802Z,97810.22
2022-08-28T20:46:51.139Z,97806.34
2022-08-28T20:49:22.194Z,97800.34
2022-08-28T20:51:53.856Z,97803.53
2022-08-28T20:54:27.457Z,97805.66
2022-08-28T20:56:58.427Z,97807.22
2022-08-28T20:59:34.448Z,97800.41
2022-08-28T21:02:12.182Z,97807.97
2022-08-28T21:04:42.274Z,97803.81
2022-08-28T21:07:12.251Z,97814.31
2022-08-28T21:10:05.959Z,97806.09
2022-08-28T21:12:28.460Z,97820.16
2022-08-28T21:14:56.305Z,97819.22
2022-08-28T21:17:29.587Z,97817.22
2022-08-28T21:20:03.070Z,97819.84
2022-08-28T21:22:33.412Z,97825.41
2022-08-28T21:25:06.650Z,97828.13
2022-08-28T21:27:35.022Z,97829.91
2022-08-28T21:30:05.249Z,97833.94
2022-08-28T21:32:34.175Z,97834.41
2022-08-28T21:35:05.251Z,97837.84
2022-08-28T21:37:33.296Z,97835.13
2022-08-28T21:40:01.456Z,97830.97
2022-08-28T21:42:29.269Z,97829.81
2022-08-28T21:44:57.014Z,97828.66
2022-08-28T21:47:25.675Z,97834.81
2022-08-28T21:49:56.558Z,97833.84
2022-08-28T21:52:30.944Z,97834.31
2022-08-28T21:55:10.858Z,97833.09
2022-08-28T21:57:39.233Z,97829.22
2022-08-28T22:00:17.641Z,97828.41
2022-08-28T22:02:46.351Z,97831.00
2022-08-28T22:05:15.245Z,97831.94
2022-08-28T22:07:45.023Z,97831.56
2022-08-28T22:10:12.829Z,97837.25
2022-08-28T22:12:40.649Z,97836.41
2022-08-28T22:15:08.995Z,97839.13
2022-08-28T22:17:36.802Z,97834.16
2022-08-28T22:20:05.198Z,97843.59
2022-08-28T22:22:51.421Z,97838.41
2022-08-28T22:25:19.265Z,97826.97
2022-08-28T22:27:47.047Z,97832.25
2022-08-28T22:30:14.880Z,97837.09
2022-08-28T22:32:43.210Z,97836.75
2022-08-28T22:35:11.076Z,97836.13
2022-08-28T22:37:38.907Z,97842.06
2022-08-28T22:40:13.017Z,97833.78
2022-08-28T22:42:42.558Z,97839.69
2022-08-28T22:45:10.815Z,97841.22
2022-08-28T22:47:39.759Z,97847.09
2022-08-28T22:50:08.595Z,97844.00
2022-08-28T22:52:37.276Z,97845.31
2022-08-28T22:55:10.566Z,97839.28
2022-08-28T22:57:40.508Z,97835.41
2022-08-28T23:00:15.597Z,97845.84
2022-08-28T23:02:44.389Z,97841.34
2022-08-28T23:05:12.739Z,97847.22
2022-08-28T23:07:41.058Z,97852.88
2022-08-28T23:10:10.052Z,97842.25
2022-08-28T23:12:38.203Z,97845.22
2022-08-28T23:15:10.105Z,97848.97
2022-08-28T23:17:38.207Z,97850.50
2022-08-28T23:20:08.226Z,97846.38
2022-08-28T23:22:38.435Z,97846.00
2022-08-28T23:25:08.480Z,97839.13
2022-08-28T23:27:36.900Z,97840.19
2022-08-28T23:30:07.134Z,97840.44
2022-08-28T23:32:35.106Z,97843.34
2022-08-28T23:35:07.010Z,97842.75
2022-08-28T23:37:37.467Z,97835.47
2022-08-28T23:40:12.100Z,97824.88
2022-08-28T23:42:40.543Z,97836.16
2022-08-28T23:45:10.713Z,97826.81
2022-08-28T23:47:40.139Z,97837.66
2022-08-28T23:50:16.325Z,97829.75
2022-08-28T23:52:44.455Z,97830.22
2022-08-28T23:55:14.497Z,97825.84
2022-08-28T23:57:43.133Z,97821.25
